createdAt,value
2018-09-20T00:00:08.021Z,8.30
2018-09-20T00:02:36.423Z,8.63
2018-09-20T00:05:04.802Z,8.30
2018-09-20T00:07:33.146Z,8.10
2018-09-20T00:10:01.870Z,7.70
2018-09-20T00:12:30.354Z,9.13
2018-09-20T00:14:58.750Z,8.40
2018-09-20T00:17:27.116Z,8.37
2018-09-20T00:19:55.468Z,8.17
2018-09-20T00:22:23.800Z,9.10
2018-09-20T00:24:52.137Z,8.00
2018-09-20T00:27:20.497Z,8.70
2018-09-20T00:29:49.094Z,8.33
2018-09-20T00:32:17.605Z,9.20
2018-09-20T00:34:45.954Z,7.57
2018-09-20T00:37:14.321Z,8.73
2018-09-20T00:39:42.686Z,8.83
2018-09-20T00:42:11.025Z,9.20
2018-09-20T00:44:39.496Z,8.70
2018-09-20T00:47:07.876Z,8.37
2018-09-20T00:49:36.382Z,8.80
2018-09-20T00:52:04.714Z,9.03
2018-09-20T00:54:33.063Z,9.20
2018-09-20T00:57:01.584Z,9.40
2018-09-20T00:59:30.040Z,8.80
2018-09-20T01:01:58.393Z,9.43
2018-09-20T01:04:26.801Z,9.60
2018-09-20T01:06:55.130Z,8.70
2018-09-20T01:09:23.713Z,9.03
2018-09-20T01:11:52.155Z,9.33
2018-09-20T01:14:20.566Z,8.60
2018-09-20T01:16:48.979Z,8.67
2018-09-20T01:19:17.345Z,8.50
2018-09-20T01:21:45.688Z,8.27
2018-09-20T01:24:13.998Z,8.53
2018-09-20T01:26:42.567Z,8.70
2018-09-20T01:29:11.099Z,9.33
2018-09-20T01:31:39.425Z,9.83
2018-09-20T01:34:07.853Z,9.17
2018-09-20T01:36:36.206Z,8.47
2018-09-20T01:39:10.001Z,9.43
2018-09-20T01:41:38.355Z,9.00
2018-09-20T01:44:06.677Z,9.30
2018-09-20T01:46:35.422Z,9.83
2018-09-20T01:49:03.746Z,9.63
2018-09-20T01:51:32.218Z,9.83
2018-09-20T01:54:00.558Z,9.33
2018-09-20T01:56:28.902Z,8.43
2018-09-20T01:58:57.234Z,9.27
2018-09-20T02:01:25.595Z,9.20
2018-09-20T02:03:53.917Z,9.30
2018-09-20T02:06:22.353Z,9.30
2018-09-20T02:08:50.721Z,8.63
2018-09-20T02:11:19.235Z,9.50
2018-09-20T02:13:48.111Z,9.17
2018-09-20T02:16:16.538Z,10.20
2018-09-20T02:18:46.214Z,9.00
2018-09-20T02:21:14.767Z,9.60
2018-09-20T02:23:43.281Z,9.20
2018-09-20T02:26:11.675Z,9.53
2018-09-20T02:28:40.027Z,9.50
2018-09-20T02:31:08.366Z,9.23
2018-09-20T02:33:36.758Z,10.63
2018-09-20T02:36:05.101Z,9.13
2018-09-20T02:38:33.545Z,9.77
2018-09-20T02:41:02.029Z,9.50
2018-09-20T02:43:30.377Z,9.93
2018-09-20T02:45:58.901Z,9.40
2018-09-20T02:48:27.358Z,9.30
2018-09-20T02:51:00.084Z,10.10
2018-09-20T02:53:28.538Z,9.83
2018-09-20T02:55:56.922Z,9.80
2018-09-20T02:58:25.315Z,10.20
2018-09-20T03:00:53.844Z,9.07
2018-09-20T03:03:22.313Z,8.73
2018-09-20T03:05:50.755Z,9.57
2018-09-20T03:08:19.092Z,10.07
2018-09-20T03:10:47.463Z,10.30
2018-09-20T03:13:15.798Z,9.90
2018-09-20T03:15:44.157Z,9.80
2018-09-20T03:18:12.514Z,9.77
2018-09-20T03:20:40.886Z,9.60
2018-09-20T03:23:09.274Z,8.80
2018-09-20T03:25:37.782Z,9.90
2018-09-20T03:28:06.465Z,9.13
2018-09-20T03:30:34.958Z,10.47
2018-09-20T03:33:03.277Z,9.90
2018-09-20T03:35:31.783Z,10.63
2018-09-20T03:38:00.142Z,9.60
2018-09-20T03:40:28.615Z,9.67
2018-09-20T03:42:56.945Z,10.20
2018-09-20T03:45:25.634Z,10.60
2018-09-20T03:47:53.949Z,9.87
2018-09-20T03:50:22.289Z,10.60
2018-09-20T03:52:50.828Z,10.10
2018-09-20T03:55:19.157Z,10.40
2018-09-20T03:57:47.521Z,10.07
2018-09-20T04:00:16.013Z,10.33
2018-09-20T04:02:44.467Z,9.07
2018-09-20T04:05:12.811Z,10.40
2018-09-20T04:07:41.262Z,10.40
2018-09-20T04:10:09.659Z,9.27
2018-09-20T04:12:38.050Z,9.43
2018-09-20T04:15:06.837Z,10.10
2018-09-20T04:17:35.334Z,10.23
2018-09-20T04:20:03.747Z,10.43
2018-09-20T04:22:32.666Z,10.30
2018-09-20T04:25:01.014Z,9.77
2018-09-20T04:27:29.477Z,9.93
2018-09-20T04:29:57.811Z,12.03
2018-09-20T04:32:26.153Z,9.70
2018-09-20T04:34:54.781Z,9.90
2018-09-20T04:37:23.123Z,10.23
2018-09-20T04:39:51.497Z,10.70
2018-09-20T04:42:20.085Z,9.70
2018-09-20T04:44:48.529Z,11.10
2018-09-20T04:47:17.033Z,11.10
2018-09-20T04:49:45.353Z,10.83
2018-09-20T04:52:13.806Z,10.70
2018-09-20T04:54:42.158Z,11.70
2018-09-20T04:57:10.659Z,10.80
2018-09-20T04:59:39.153Z,10.50
2018-09-20T05:02:07.598Z,10.10
2018-09-20T05:04:36.154Z,11.10
2018-09-20T05:07:04.592Z,10.67
2018-09-20T05:09:33.231Z,10.83
2018-09-20T05:12:01.538Z,11.00
2018-09-20T05:14:29.894Z,11.23
2018-09-20T05:16:58.286Z,10.80
2018-09-20T05:19:26.653Z,11.30
2018-09-20T05:21:55.001Z,11.60
2018-09-20T05:24:23.484Z,10.73
2018-09-20T05:26:51.820Z,11.70
2018-09-20T05:29:20.207Z,11.00
2018-09-20T05:31:48.577Z,11.20
2018-09-20T05:34:16.928Z,10.63
2018-09-20T05:36:45.279Z,12.40
2018-09-20T05:39:13.683Z,11.10
2018-09-20T05:41:42.007Z,10.20
2018-09-20T05:44:10.772Z,12.27
2018-09-20T05:46:39.893Z,11.00
2018-09-20T05:49:08.254Z,11.60
2018-09-20T05:51:36.608Z,11.63
2018-09-20T05:54:04.977Z,11.43
2018-09-20T05:56:33.958Z,10.60
2018-09-20T05:59:02.696Z,11.77
2018-09-20T06:01:31.247Z,11.50
2018-09-20T06:03:59.886Z,11.47
2018-09-20T06:06:28.366Z,12.07
2018-09-20T06:08:56.793Z,11.40
2018-09-20T06:11:25.140Z,10.90
2018-09-20T06:13:53.502Z,10.67
2018-09-20T06:16:21.925Z,10.80
2018-09-20T06:18:50.359Z,10.77
2018-09-20T06:21:18.755Z,10.77
2018-09-20T06:23:47.208Z,11.13
2018-09-20T06:26:15.690Z,11.40
2018-09-20T06:28:44.113Z,10.60
2018-09-20T06:31:12.450Z,10.40
2018-09-20T06:33:40.891Z,10.77
2018-09-20T06:36:09.280Z,10.90
2018-09-20T06:38:37.665Z,10.83
2018-09-20T06:41:06.275Z,10.70
2018-09-20T06:43:34.530Z,11.50
2018-09-20T06:46:03.001Z,9.40
2018-09-20T06:48:31.526Z,11.67
2018-09-20T06:50:59.881Z,9.67
2018-09-20T06:53:28.226Z,10.30
2018-09-20T06:55:56.646Z,10.20
2018-09-20T06:58:25.130Z,10.60
2018-09-20T07:00:53.493Z,10.00
2018-09-20T07:03:21.886Z,11.30
2018-09-20T07:05:50.287Z,10.53
2018-09-20T07:08:18.814Z,10.60
2018-09-20T07:10:47.194Z,10.40
2018-09-20T07:13:15.613Z,10.37
2018-09-20T07:15:44.074Z,10.77
2018-09-20T07:18:12.443Z,9.63
2018-09-20T07:20:40.778Z,10.60
2018-09-20T07:23:09.168Z,10.70
2018-09-20T07:25:37.739Z,9.80
2018-09-20T07:28:06.163Z,10.73
2018-09-20T07:30:34.673Z,10.27
2018-09-20T07:33:03.030Z,10.93
2018-09-20T07:35:31.545Z,10.50
2018-09-20T07:37:59.966Z,11.00
2018-09-20T07:40:28.382Z,11.00
2018-09-20T07:42:56.720Z,10.37
2018-09-20T07:45:25.186Z,10.33
2018-09-20T07:47:53.518Z,11.00
2018-09-20T07:50:21.930Z,10.37
2018-09-20T07:52:50.267Z,11.20
2018-09-20T07:55:18.649Z,10.40
2018-09-20T07:57:47.049Z,11.30
2018-09-20T08:00:15.562Z,10.70
2018-09-20T08:02:43.898Z,10.77
2018-09-20T08:05:12.252Z,14.07
2018-09-20T08:07:40.598Z,11.60
2018-09-20T08:10:09.078Z,12.33
2018-09-20T08:12:37.413Z,10.07
2018-09-20T08:15:05.987Z,10.57
2018-09-20T08:17:34.427Z,10.70
2018-09-20T08:20:03.181Z,10.47
2018-09-20T08:22:31.598Z,9.43
2018-09-20T08:24:59.971Z,10.50
2018-09-20T08:27:28.531Z,9.60
2018-09-20T08:29:56.921Z,10.07
2018-09-20T08:32:25.350Z,10.90
2018-09-20T08:34:53.713Z,9.60
2018-09-20T08:37:22.117Z,9.00
2018-09-20T08:39:50.547Z,8.13
2018-09-20T08:42:18.942Z,7.87
2018-09-20T08:44:47.384Z,8.10
2018-09-20T08:47:15.995Z,8.50
2018-09-20T08:49:44.409Z,8.90
2018-09-20T08:52:12.746Z,8.73
2018-09-20T08:54:41.141Z,9.03
2018-09-20T08:57:09.494Z,8.27
2018-09-20T08:59:37.890Z,7.40
2018-09-20T09:02:06.262Z,8.90
2018-09-20T09:04:34.764Z,8.13
2018-09-20T09:07:03.205Z,8.50
2018-09-20T09:09:31.654Z,8.23
2018-09-20T09:11:59.996Z,9.10
2018-09-20T09:14:28.337Z,9.00
2018-09-20T09:16:57.007Z,8.47
2018-09-20T09:19:25.385Z,8.53
2018-09-20T09:21:53.758Z,7.50
2018-09-20T09:24:22.154Z,8.00
2018-09-20T09:26:50.497Z,8.03
2018-09-20T09:29:18.834Z,9.67
2018-09-20T09:31:47.433Z,8.80
2018-09-20T09:34:15.929Z,9.00
2018-09-20T09:36:44.286Z,8.50
2018-09-20T09:39:13.565Z,7.83
2018-09-20T09:41:42.694Z,7.93
2018-09-20T09:44:10.997Z,7.53
2018-09-20T09:46:39.793Z,8.90
2018-09-20T09:49:08.178Z,8.30
2018-09-20T09:51:36.676Z,7.73
2018-09-20T09:54:05.201Z,8.87
2018-09-20T09:56:33.894Z,8.00
2018-09-20T09:59:02.242Z,7.73
2018-09-20T10:01:30.681Z,8.90
2018-09-20T10:03:59.142Z,6.80
2018-09-20T10:06:27.502Z,7.73
2018-09-20T10:08:55.861Z,7.93
2018-09-20T10:11:24.300Z,7.60
2018-09-20T10:13:52.769Z,7.00
2018-09-20T10:16:21.048Z,7.97
2018-09-20T10:18:49.526Z,7.23
2018-09-20T10:21:18.043Z,7.17
2018-09-20T10:23:46.416Z,7.60
2018-09-20T10:26:14.769Z,6.70
2018-09-20T10:28:43.298Z,6.60
2018-09-20T10:31:11.700Z,7.50
2018-09-20T10:33:40.109Z,7.00
2018-09-20T10:36:08.506Z,7.03
2018-09-20T10:38:36.846Z,6.53
2018-09-20T10:41:05.294Z,6.73
2018-09-20T10:43:33.627Z,7.13
2018-09-20T10:46:02.150Z,6.93
2018-09-20T10:48:30.603Z,6.60
2018-09-20T10:50:59.050Z,6.20
2018-09-20T10:53:27.391Z,6.83
2018-09-20T10:55:55.742Z,7.30
2018-09-20T10:58:24.107Z,6.17
2018-09-20T11:00:52.486Z,6.37
2018-09-20T11:03:20.880Z,6.40
2018-09-20T11:05:49.250Z,6.77
2018-09-20T11:08:17.785Z,6.87
2018-09-20T11:10:46.148Z,6.87
2018-09-20T11:13:14.565Z,6.13
2018-09-20T11:15:43.025Z,6.33
2018-09-20T11:18:11.388Z,6.50
2018-09-20T11:20:39.786Z,6.10
2018-09-20T11:23:08.194Z,6.30
2018-09-20T11:25:36.546Z,7.07
2018-09-20T11:28:05.193Z,6.77
2018-09-20T11:30:33.639Z,6.50
2018-09-20T11:33:02.470Z,6.20
2018-09-20T11:35:30.858Z,6.40
2018-09-20T11:37:59.225Z,7.27
2018-09-20T11:40:27.589Z,6.53
2018-09-20T11:42:56.050Z,6.47
2018-09-20T11:45:24.767Z,6.77
2018-09-20T11:47:53.202Z,7.30
2018-09-20T11:50:21.540Z,6.73
2018-09-20T11:52:49.946Z,6.47
2018-09-20T11:55:18.381Z,6.50
2018-09-20T11:57:47.064Z,6.63
2018-09-20T12:00:19.490Z,6.03
2018-09-20T12:02:48.514Z,6.77
2018-09-20T12:05:17.062Z,5.90
2018-09-20T12:07:46.021Z,6.60
2018-09-20T12:10:14.633Z,6.50
2018-09-20T12:12:43.214Z,6.40
2018-09-20T12:15:11.726Z,7.10
2018-09-20T12:17:40.133Z,6.57
2018-09-20T12:20:08.587Z,7.40
2018-09-20T12:22:36.918Z,6.23
2018-09-20T12:25:06.321Z,6.87
2018-09-20T12:27:34.694Z,6.00
2018-09-20T12:30:03.063Z,6.90
2018-09-20T12:32:31.967Z,6.50
2018-09-20T12:35:00.426Z,7.17
2018-09-20T12:37:34.136Z,6.73
2018-09-20T12:40:02.507Z,7.20
2018-09-20T12:42:30.892Z,6.43
2018-09-20T12:44:59.816Z,6.47
2018-09-20T12:47:28.326Z,6.80
2018-09-20T12:49:57.166Z,6.87
2018-09-20T12:52:25.740Z,5.83
2018-09-20T12:54:54.960Z,6.20
2018-09-20T12:57:23.693Z,5.77
2018-09-20T12:59:52.234Z,5.40
2018-09-20T13:02:20.934Z,6.03
2018-09-20T13:04:49.639Z,6.27
2018-09-20T13:07:18.092Z,5.83
2018-09-20T13:09:46.565Z,6.30
2018-09-20T13:12:14.943Z,5.83
2018-09-20T13:14:43.360Z,5.87
2018-09-20T13:17:11.716Z,6.37
2018-09-20T13:19:40.070Z,5.87
2018-09-20T13:22:08.694Z,6.30
2018-09-20T13:24:37.218Z,6.53
2018-09-20T13:27:05.554Z,5.47
2018-09-20T13:29:34.210Z,6.23
2018-09-20T13:32:02.579Z,5.63
2018-09-20T13:34:31.105Z,5.27
2018-09-20T13:36:59.605Z,5.47
2018-09-20T13:39:28.299Z,6.40
2018-09-20T13:41:56.668Z,5.93
2018-09-20T13:44:25.041Z,5.93
2018-09-20T13:46:53.526Z,5.93
2018-09-20T13:49:22.013Z,5.70
2018-09-20T13:51:50.734Z,6.10
2018-09-20T13:54:19.318Z,7.00
2018-09-20T13:56:47.658Z,5.67
2018-09-20T13:59:16.162Z,6.33
2018-09-20T14:01:44.605Z,5.83
2018-09-20T14:04:12.966Z,5.33
2018-09-20T14:06:41.331Z,5.60
2018-09-20T14:09:11.105Z,4.93
2018-09-20T14:11:39.770Z,4.60
2018-09-20T14:14:08.360Z,3.83
2018-09-20T14:16:36.714Z,4.70
2018-09-20T14:19:05.214Z,4.83
2018-09-20T14:21:33.685Z,5.00
2018-09-20T14:24:02.028Z,5.73
2018-09-20T14:26:30.533Z,5.47
2018-09-20T14:28:58.920Z,4.83
2018-09-20T14:31:27.316Z,5.30
2018-09-20T14:33:55.837Z,5.10
2018-09-20T14:36:24.201Z,4.70
2018-09-20T14:38:52.514Z,5.03
2018-09-20T14:41:20.849Z,4.93
2018-09-20T14:43:49.386Z,4.70
2018-09-20T14:46:18.134Z,4.60
2018-09-20T14:48:46.489Z,5.20
2018-09-20T14:51:14.948Z,4.40
2018-09-20T14:53:43.311Z,5.10
2018-09-20T14:56:11.722Z,4.60
2018-09-20T14:58:40.106Z,5.20
2018-09-20T15:01:08.534Z,4.57
2018-09-20T15:03:36.881Z,4.30
2018-09-20T15:06:05.349Z,5.03
2018-09-20T15:08:34.006Z,5.03
2018-09-20T15:11:02.426Z,4.77
2018-09-20T15:13:30.753Z,4.73
2018-09-20T15:15:59.175Z,4.60
2018-09-20T15:18:27.693Z,4.80
2018-09-20T15:20:56.017Z,4.60
2018-09-20T15:23:24.329Z,5.13
2018-09-20T15:25:52.726Z,4.80
2018-09-20T15:28:21.217Z,5.10
2018-09-20T15:30:49.714Z,5.30
2018-09-20T15:33:18.062Z,5.47
2018-09-20T15:35:46.493Z,4.20
2018-09-20T15:38:14.886Z,5.60
2018-09-20T15:40:43.333Z,4.97
2018-09-20T15:43:11.794Z,5.20
2018-09-20T15:45:40.118Z,5.53
2018-09-20T15:48:08.820Z,5.10
2018-09-20T15:50:37.215Z,5.30
2018-09-20T15:53:05.945Z,4.70
2018-09-20T15:55:34.326Z,4.90
2018-09-20T15:58:02.690Z,5.47
2018-09-20T16:00:31.278Z,4.70
2018-09-20T16:02:59.642Z,6.33
2018-09-20T16:05:28.201Z,5.90
2018-09-20T16:07:56.574Z,5.20
2018-09-20T16:10:25.223Z,5.10
2018-09-20T16:12:53.734Z,5.47
2018-09-20T16:15:22.151Z,5.33
2018-09-20T16:17:50.520Z,4.93
2018-09-20T16:20:18.949Z,5.17
2018-09-20T16:22:47.362Z,5.40
2018-09-20T16:25:15.691Z,5.77
2018-09-20T16:27:44.138Z,5.33
2018-09-20T16:30:35.847Z,4.97
2018-09-20T16:35:20.483Z,5.03
2018-09-20T16:38:13.260Z,5.73
2018-09-20T16:40:43.573Z,5.40
2018-09-20T16:43:11.926Z,6.00
2018-09-20T16:45:40.380Z,6.00
2018-09-20T16:48:08.741Z,6.17
2018-09-20T16:50:37.280Z,5.60
2018-09-20T16:53:06.195Z,6.20
2018-09-20T16:55:34.529Z,6.33
2018-09-20T16:58:02.900Z,5.70
2018-09-20T17:00:31.442Z,6.07
2018-09-20T17:02:59.800Z,5.80
2018-09-20T17:05:28.418Z,6.30
2018-09-20T17:07:56.749Z,5.70
2018-09-20T17:10:25.274Z,5.43
2018-09-20T17:12:53.735Z,5.70
2018-09-20T17:15:22.105Z,5.63
2018-09-20T17:17:50.677Z,5.70
2018-09-20T17:20:19.102Z,5.80
2018-09-20T17:22:47.508Z,6.30
2018-09-20T17:25:16.022Z,5.93
2018-09-20T17:27:44.391Z,5.73
2018-09-20T17:30:12.744Z,5.93
2018-09-20T17:32:42.538Z,6.13
2018-09-20T17:35:11.526Z,5.93
2018-09-20T17:37:41.168Z,5.93
2018-09-20T17:40:10.398Z,6.00
2018-09-20T17:42:39.974Z,8.70
2018-09-20T17:45:08.382Z,7.70
2018-09-20T17:47:37.159Z,7.87
2018-09-20T17:50:05.462Z,7.30
2018-09-20T17:52:34.530Z,6.20
2018-09-20T17:55:04.727Z,6.03
2018-09-20T17:57:34.678Z,7.37
2018-09-20T18:00:03.130Z,6.47
2018-09-20T18:02:31.522Z,8.63
2018-09-20T18:05:00.506Z,10.20
2018-09-20T18:07:29.122Z,8.63
2018-09-20T18:09:57.502Z,6.80
2018-09-20T18:12:26.028Z,6.83
2018-09-20T18:14:54.545Z,7.30
2018-09-20T18:17:23.130Z,8.53
2018-09-20T18:19:51.583Z,6.90
2018-09-20T18:22:20.035Z,6.20
2018-09-20T18:24:48.419Z,6.60
2018-09-20T18:27:16.879Z,6.57
2018-09-20T18:29:45.282Z,6.07
2018-09-20T18:32:13.720Z,6.00
2018-09-20T18:34:42.153Z,7.00
2018-09-20T18:37:10.621Z,6.97
2018-09-20T18:39:39.089Z,6.40
2018-09-20T18:42:07.527Z,6.70
2018-09-20T18:44:35.989Z,6.40
2018-09-20T18:47:04.482Z,7.13
2018-09-20T18:49:32.885Z,7.37
2018-09-20T18:52:01.238Z,7.63
2018-09-20T18:54:29.668Z,7.77
2018-09-20T18:56:58.042Z,5.97
2018-09-20T18:59:26.683Z,6.87
2018-09-20T19:01:55.231Z,7.17
2018-09-20T19:04:23.557Z,12.70
2018-09-20T19:06:52.042Z,8.43
2018-09-20T19:09:20.430Z,7.27
2018-09-20T19:11:48.983Z,7.70
2018-09-20T19:14:17.490Z,7.70
2018-09-20T19:16:46.070Z,7.80
2018-09-20T19:19:14.400Z,6.90
2018-09-20T19:21:42.872Z,7.60
2018-09-20T19:24:11.235Z,8.10
2018-09-20T19:26:39.652Z,8.13
2018-09-20T19:29:08.017Z,8.30
2018-09-20T19:31:36.758Z,7.27
2018-09-20T19:34:05.147Z,7.63
2018-09-20T19:36:33.569Z,6.90
2018-09-20T19:39:05.045Z,7.97
2018-09-20T19:41:33.455Z,8.57
2018-09-20T19:44:01.929Z,8.20
2018-09-20T19:46:30.519Z,7.83
2018-09-20T19:48:59.010Z,7.63
2018-09-20T19:51:28.842Z,9.00
2018-09-20T19:53:57.294Z,8.63
2018-09-20T19:56:25.942Z,11.87
2018-09-20T19:58:54.830Z,8.43
2018-09-20T20:01:23.226Z,8.53
2018-09-20T20:03:51.753Z,6.90
2018-09-20T20:06:20.265Z,7.90
2018-09-20T20:08:48.816Z,7.80
2018-09-20T20:11:44.162Z,7.90
2018-09-20T20:14:12.617Z,7.87
2018-09-20T20:16:41.192Z,7.50
2018-09-20T20:19:10.033Z,7.07
2018-09-20T20:21:38.491Z,8.10
2018-09-20T20:24:07.087Z,7.97
2018-09-20T20:26:35.494Z,7.60
2018-09-20T20:29:03.902Z,7.67
2018-09-20T20:31:32.319Z,6.87
2018-09-20T20:34:00.717Z,7.13
2018-09-20T20:36:29.156Z,6.80
2018-09-20T20:38:57.614Z,7.13
2018-09-20T20:41:25.988Z,7.53
2018-09-20T20:43:54.846Z,7.60
2018-09-20T20:46:23.555Z,7.20
2018-09-20T20:48:52.117Z,7.00
2018-09-20T20:51:20.552Z,7.53
2018-09-20T20:53:48.974Z,8.13
2018-09-20T20:56:17.467Z,7.07
2018-09-20T20:58:45.957Z,6.83
2018-09-20T21:01:20.064Z,7.37
2018-09-20T21:03:49.677Z,7.80
2018-09-20T21:06:18.653Z,7.43
2018-09-20T21:08:47.568Z,7.53
2018-09-20T21:11:16.202Z,7.93
2018-09-20T21:13:44.932Z,7.97
2018-09-20T21:16:13.354Z,6.97
2018-09-20T21:18:41.893Z,6.80
2018-09-20T21:21:10.289Z,8.17
2018-09-20T21:23:38.876Z,8.13
2018-09-20T21:26:07.372Z,8.20
2018-09-20T21:28:35.729Z,8.40
2018-09-20T21:31:04.423Z,8.00
2018-09-20T21:33:32.901Z,7.83
2018-09-20T21:36:01.311Z,9.47
2018-09-20T21:38:29.646Z,7.60
2018-09-20T21:40:58.306Z,8.60
2018-09-20T21:43:26.698Z,9.70
2018-09-20T21:45:55.038Z,8.53
2018-09-20T21:48:23.498Z,8.10
2018-09-20T21:50:51.878Z,8.40
2018-09-20T21:53:20.230Z,8.97
2018-09-20T21:55:48.646Z,7.70
2018-09-20T21:58:17.094Z,9.00
2018-09-20T22:00:45.918Z,7.87
2018-09-20T22:03:14.419Z,8.10
2018-09-20T22:05:42.911Z,8.60
2018-09-20T22:08:11.252Z,8.50
2018-09-20T22:10:39.620Z,7.97
2018-09-20T22:13:08.028Z,9.13
2018-09-20T22:15:36.364Z,7.97
2018-09-20T22:18:04.898Z,8.57
2018-09-20T22:20:33.278Z,7.33
2018-09-20T22:23:01.634Z,8.30
2018-09-20T22:25:29.987Z,8.37
2018-09-20T22:27:58.457Z,7.80
2018-09-20T22:30:26.779Z,7.87
2018-09-20T22:32:55.251Z,8.40
2018-09-20T22:35:23.623Z,7.70
2018-09-20T22:37:51.978Z,7.53
2018-09-20T22:40:20.321Z,8.00
2018-09-20T22:42:48.691Z,7.27
2018-09-20T22:45:17.027Z,7.60
2018-09-20T22:47:45.535Z,7.67
2018-09-20T22:50:13.867Z,7.10
2018-09-20T22:52:42.379Z,8.43
2018-09-20T22:55:10.733Z,7.93
2018-09-20T22:57:39.078Z,8.07
2018-09-20T23:00:07.493Z,7.97
2018-09-20T23:02:35.884Z,8.70
2018-09-20T23:05:04.393Z,7.83
2018-09-20T23:07:32.854Z,7.80
2018-09-20T23:10:01.214Z,7.67
2018-09-20T23:12:29.555Z,7.93
2018-09-20T23:14:57.886Z,8.00
2018-09-20T23:17:26.193Z,7.43
2018-09-20T23:19:54.537Z,7.63
2018-09-20T23:22:23.028Z,7.57
2018-09-20T23:24:51.413Z,7.73
2018-09-20T23:27:19.745Z,6.60
2018-09-20T23:29:48.121Z,7.57
2018-09-20T23:32:16.635Z,7.43
2018-09-20T23:34:45.036Z,7.53
2018-09-20T23:37:13.373Z,7.77
2018-09-20T23:39:41.697Z,7.70
2018-09-20T23:42:10.059Z,6.67
2018-09-20T23:44:38.535Z,7.30
2018-09-20T23:47:07.034Z,8.77
2018-09-20T23:49:35.361Z,7.40
2018-09-20T23:52:03.798Z,8.17
2018-09-20T23:54:32.145Z,8.03
2018-09-20T23:57:00.530Z,8.50
2018-09-20T23:59:28.896Z,9.80
